Time;durP1;ratioP1;P1;durP2;ratioP2;P2;SDS_P1;SDS_P2;PMS_P1;PMS_P2;Temp;Humidity;BMP_temperature;BMP_pressure;BME280_temperature;BME280_humidity;BME280_pressure;Samples;Min_cycle;Max_cycle;Signal;HPM_P1;HPM_P2
2023/01/22 00:01:36;;;;;;;33.15;30.15;;;;;;;;;;5102588;28;20215;-83
2023/01/22 00:04:04;;;;;;;28.67;26.45;;;;;;;;;;5102875;28;20204;-83
2023/01/22 00:06:31;;;;;;;31.27;28.58;;;;;;;;;;5103347;28;20222;-82
2023/01/22 00:09:02;;;;;;;29.65;27.10;;;;;;;;;;5103783;28;20657;-84
2023/01/22 00:11:29;;;;;;;30.23;27.83;;;;;;;;;;5102873;28;20746;-82
2023/01/22 00:13:57;;;;;;;32.67;29.90;;;;;;;;;;5103676;28;20562;-83
2023/01/22 00:16:24;;;;;;;31.60;29.10;;;;;;;;;;5102802;28;20757;-83
2023/01/22 00:18:52;;;;;;;32.22;29.67;;;;;;;;;;5102487;28;20560;-83
2023/01/22 00:21:19;;;;;;;31.83;28.98;;;;;;;;;;5102653;28;20617;-84
2023/01/22 00:23:46;;;;;;;32.35;29.63;;;;;;;;;;5102765;28;20602;-83
2023/01/22 00:26:14;;;;;;;31.85;29.10;;;;;;;;;;5102451;28;20224;-82
2023/01/22 00:28:41;;;;;;;29.98;27.48;;;;;;;;;;5102694;28;20207;-82
2023/01/22 00:31:09;;;;;;;30.50;27.88;;;;;;;;;;5102708;28;20253;-82
2023/01/22 00:33:36;;;;;;;32.65;29.75;;;;;;;;;;5101852;28;20207;-83
2023/01/22 00:36:08;;;;;;;32.38;29.30;;;;;;;;;;5102452;28;20691;-83
2023/01/22 00:38:35;;;;;;;31.48;28.58;;;;;;;;;;5102273;28;20227;-82
2023/01/22 00:41:02;;;;;;;30.75;28.23;;;;;;;;;;5102364;28;20245;-83
2023/01/22 00:43:29;;;;;;;30.48;27.98;;;;;;;;;;5102050;28;20207;-81
2023/01/22 00:45:56;;;;;;;30.23;27.73;;;;;;;;;;5101841;28;20705;-83
2023/01/22 00:48:23;;;;;;;29.00;26.27;;;;;;;;;;5102312;28;20248;-82
2023/01/22 00:50:51;;;;;;;31.70;29.00;;;;;;;;;;5101769;28;20200;-82
2023/01/22 00:53:19;;;;;;;28.42;26.00;;;;;;;;;;5101646;28;20290;-82
2023/01/22 00:55:52;;;;;;;30.88;28.45;;;;;;;;;;5102168;28;20225;-83
2023/01/22 00:58:20;;;;;;;32.03;29.13;;;;;;;;;;5101864;28;20271;-83
2023/01/22 01:00:47;;;;;;;32.70;29.90;;;;;;;;;;5102536;28;20209;-82
2023/01/22 01:05:59;;;;;;;30.95;28.15;;;;;;;;;;5101086;28;20219;-83
2023/01/22 01:08:28;;;;;;;30.30;27.92;;;;;;;;;;5102195;28;20205;-82
2023/01/22 01:10:56;;;;;;;30.85;28.05;;;;;;;;;;5101947;28;20208;-82
2023/01/22 01:13:23;;;;;;;32.30;29.67;;;;;;;;;;5100997;28;20234;-81
2023/01/22 01:15:50;;;;;;;32.35;29.52;;;;;;;;;;5102042;28;20223;-81
2023/01/22 01:18:17;;;;;;;29.67;27.33;;;;;;;;;;5101339;28;20223;-82
2023/01/22 01:20:44;;;;;;;30.55;27.95;;;;;;;;;;5101808;28;20208;-83
2023/01/22 01:23:11;;;;;;;29.98;27.60;;;;;;;;;;5100957;28;20207;-82
2023/01/22 01:25:42;;;;;;;24.90;23.15;;;;;;;;;;5101265;28;20218;-82
2023/01/22 01:28:09;;;;;;;31.33;28.73;;;;;;;;;;5101607;28;20211;-81
2023/01/22 01:30:36;;;;;;;29.63;27.30;;;;;;;;;;5101669;28;20268;-83
2023/01/22 01:33:03;;;;;;;31.90;29.25;;;;;;;;;;5101056;28;20208;-81
2023/01/22 01:35:29;;;;;;;32.80;29.75;;;;;;;;;;5101190;28;20253;-82
2023/01/22 01:37:56;;;;;;;29.60;27.17;;;;;;;;;;5101561;28;20199;-82
2023/01/22 01:40:24;;;;;;;31.63;29.00;;;;;;;;;;5101422;28;20337;-81
2023/01/22 01:42:52;;;;;;;32.25;29.45;;;;;;;;;;5101291;28;20203;-82
2023/01/22 01:45:20;;;;;;;34.22;31.42;;;;;;;;;;5100850;28;20216;-82
2023/01/22 01:47:48;;;;;;;31.30;28.67;;;;;;;;;;5101098;28;20195;-81
2023/01/22 01:50:16;;;;;;;31.00;28.02;;;;;;;;;;5100611;28;20545;-82
2023/01/22 01:52:43;;;;;;;29.60;27.08;;;;;;;;;;5100091;28;20208;-82
2023/01/22 01:55:11;;;;;;;29.55;27.08;;;;;;;;;;5101072;28;20212;-82
2023/01/22 01:57:39;;;;;;;25.42;23.77;;;;;;;;;;5100853;28;20192;-82
2023/01/22 02:00:10;;;;;;;32.38;29.48;;;;;;;;;;5101691;28;20250;-83
2023/01/22 02:02:37;;;;;;;30.50;28.10;;;;;;;;;;5100716;28;20642;-83
2023/01/22 02:05:04;;;;;;;30.10;27.60;;;;;;;;;;5100918;28;20220;-82
2023/01/22 02:07:31;;;;;;;32.03;29.27;;;;;;;;;;5100848;28;20251;-83
2023/01/22 02:09:58;;;;;;;31.63;28.90;;;;;;;;;;5100898;28;20229;-82
2023/01/22 02:12:25;;;;;;;29.17;26.88;;;;;;;;;;5100445;28;20244;-82
2023/01/22 02:14:52;;;;;;;28.63;26.60;;;;;;;;;;5100707;28;20256;-82
2023/01/22 02:17:22;;;;;;;26.90;24.83;;;;;;;;;;5100505;28;20276;-83
2023/01/22 02:19:49;;;;;;;29.73;27.10;;;;;;;;;;5100931;28;20277;-83
2023/01/22 02:22:19;;;;;;;30.48;28.20;;;;;;;;;;5100844;28;20204;-82
2023/01/22 02:24:46;;;;;;;32.40;29.65;;;;;;;;;;5100808;28;20216;-83
2023/01/22 02:27:13;;;;;;;30.95;28.35;;;;;;;;;;5100286;28;20199;-82
2023/01/22 02:29:41;;;;;;;28.27;26.05;;;;;;;;;;5100794;28;20611;-82
2023/01/22 02:32:08;;;;;;;29.50;27.17;;;;;;;;;;5099609;28;20229;-82
2023/01/22 02:34:35;;;;;;;29.23;26.88;;;;;;;;;;5100066;28;20224;-83
2023/01/22 02:37:02;;;;;;;30.52;28.13;;;;;;;;;;5100116;28;20257;-82
2023/01/22 02:39:30;;;;;;;29.35;27.05;;;;;;;;;;5101011;28;20272;-84
2023/01/22 02:41:57;;;;;;;28.92;26.83;;;;;;;;;;5099232;28;20240;-81
2023/01/22 02:44:24;;;;;;;29.45;27.13;;;;;;;;;;5100491;28;20296;-83
2023/01/22 02:46:51;;;;;;;31.17;28.75;;;;;;;;;;5099866;28;20257;-82
2023/01/22 02:49:18;;;;;;;29.58;26.95;;;;;;;;;;5100606;28;20203;-82
2023/01/22 02:51:45;;;;;;;30.90;28.15;;;;;;;;;;5100496;28;20229;-82
2023/01/22 02:54:12;;;;;;;31.30;28.35;;;;;;;;;;5100135;28;20211;-83
2023/01/22 02:56:40;;;;;;;29.92;27.38;;;;;;;;;;5100838;28;20233;-84
2023/01/22 02:59:07;;;;;;;29.33;26.90;;;;;;;;;;5100021;28;20251;-83
2023/01/22 03:01:34;;;;;;;30.02;27.55;;;;;;;;;;5099993;28;20216;-82
2023/01/22 03:04:09;;;;;;;28.52;26.33;;;;;;;;;;5101240;28;20208;-84
2023/01/22 03:06:37;;;;;;;30.65;28.02;;;;;;;;;;5101057;28;20183;-83
2023/01/22 03:09:04;;;;;;;30.77;28.30;;;;;;;;;;5102294;28;20199;-83
2023/01/22 03:11:33;;;;;;;30.00;27.70;;;;;;;;;;5102699;28;20203;-84
2023/01/22 03:22:17;;;;;;;28.90;26.70;;;;;;;;;;5104653;28;20184;-83
2023/01/22 03:24:49;;;;;;;29.58;27.40;;;;;;;;;;5105295;28;20250;-84
2023/01/22 03:27:16;;;;;;;28.67;26.52;;;;;;;;;;5105637;28;20235;-82
2023/01/22 03:29:45;;;;;;;28.75;26.35;;;;;;;;;;5104945;28;20206;-83
2023/01/22 03:32:12;;;;;;;28.00;25.90;;;;;;;;;;5104516;28;20237;-82
2023/01/22 03:34:39;;;;;;;26.80;24.70;;;;;;;;;;5104097;28;20228;-83
2023/01/22 03:37:06;;;;;;;27.88;25.75;;;;;;;;;;5104573;28;20672;-82
2023/01/22 03:39:33;;;;;;;27.30;25.33;;;;;;;;;;5104574;28;20223;-82
2023/01/22 03:42:00;;;;;;;27.98;25.92;;;;;;;;;;5104181;28;20203;-82
2023/01/22 03:44:27;;;;;;;26.00;24.10;;;;;;;;;;5104120;28;20226;-83
2023/01/22 03:46:56;;;;;;;27.05;25.05;;;;;;;;;;5104559;28;20196;-83
2023/01/22 03:49:23;;;;;;;26.80;24.90;;;;;;;;;;5103929;28;20345;-83
2023/01/22 03:51:50;;;;;;;28.80;26.30;;;;;;;;;;5103116;28;20193;-82
2023/01/22 03:54:17;;;;;;;27.52;25.48;;;;;;;;;;5104508;28;20677;-83
2023/01/22 03:56:44;;;;;;;27.45;25.45;;;;;;;;;;5103945;28;20229;-83
2023/01/22 03:59:11;;;;;;;28.30;26.08;;;;;;;;;;5104416;28;20215;-83
2023/01/22 04:01:38;;;;;;;26.70;24.67;;;;;;;;;;5103459;28;20684;-82
2023/01/22 04:04:06;;;;;;;27.95;25.85;;;;;;;;;;5103105;28;20204;-83
2023/01/22 04:06:33;;;;;;;28.42;26.42;;;;;;;;;;5103102;28;20276;-83
2023/01/22 04:09:00;;;;;;;25.38;23.73;;;;;;;;;;5103932;28;20200;-82
2023/01/22 04:11:27;;;;;;;27.27;25.27;;;;;;;;;;5103169;28;20658;-83
2023/01/22 04:13:55;;;;;;;27.17;24.98;;;;;;;;;;5103206;28;20203;-82
2023/01/22 04:16:22;;;;;;;29.02;26.58;;;;;;;;;;5103795;28;20715;-82
2023/01/22 04:18:49;;;;;;;28.50;26.50;;;;;;;;;;5104120;28;20237;-82
2023/01/22 04:21:18;;;;;;;28.55;26.35;;;;;;;;;;5102920;28;20286;-83
2023/01/22 04:23:45;;;;;;;28.20;25.70;;;;;;;;;;5103932;28;20301;-84
2023/01/22 04:26:12;;;;;;;28.85;26.75;;;;;;;;;;5103547;28;20246;-83
2023/01/22 04:28:39;;;;;;;27.38;25.05;;;;;;;;;;5103011;28;20248;-83
2023/01/22 04:31:07;;;;;;;26.35;24.50;;;;;;;;;;5102163;28;20253;-83
2023/01/22 04:33:34;;;;;;;28.85;26.85;;;;;;;;;;5101966;28;20208;-83
2023/01/22 04:36:01;;;;;;;28.52;26.40;;;;;;;;;;5103360;28;20215;-82
2023/01/22 04:38:29;;;;;;;29.00;26.80;;;;;;;;;;5104269;28;20559;-82
2023/01/22 04:40:56;;;;;;;28.15;26.00;;;;;;;;;;5102918;28;20224;-84
2023/01/22 04:43:23;;;;;;;28.45;26.35;;;;;;;;;;5101991;28;20661;-84
2023/01/22 04:45:51;;;;;;;28.00;26.10;;;;;;;;;;5103217;28;20221;-82
2023/01/22 04:48:18;;;;;;;26.90;24.90;;;;;;;;;;5102754;28;20196;-83
2023/01/22 04:50:45;;;;;;;27.65;25.65;;;;;;;;;;5103073;28;20331;-82
2023/01/22 04:53:11;;;;;;;27.60;25.70;;;;;;;;;;5102153;28;20204;-83
2023/01/22 04:55:40;;;;;;;28.40;26.20;;;;;;;;;;5102578;28;20218;-82
2023/01/22 04:58:08;;;;;;;29.83;27.67;;;;;;;;;;5102344;28;20543;-83
2023/01/22 05:00:35;;;;;;;28.02;26.02;;;;;;;;;;5102460;28;20655;-82
2023/01/22 05:03:03;;;;;;;28.38;26.38;;;;;;;;;;5101766;28;20213;-82
2023/01/22 05:05:31;;;;;;;27.60;25.67;;;;;;;;;;5102309;28;20211;-82
2023/01/22 05:07:58;;;;;;;27.50;25.52;;;;;;;;;;5102857;28;20290;-82
2023/01/22 05:10:25;;;;;;;28.48;26.38;;;;;;;;;;5102543;28;20199;-84
2023/01/22 05:12:54;;;;;;;27.77;25.88;;;;;;;;;;5101646;28;20195;-82
2023/01/22 05:15:21;;;;;;;27.52;25.63;;;;;;;;;;5102978;28;20229;-83
2023/01/22 05:17:48;;;;;;;26.70;24.90;;;;;;;;;;5102572;28;20216;-82
2023/01/22 05:20:15;;;;;;;27.80;25.80;;;;;;;;;;5102222;28;20249;-83
2023/01/22 05:22:42;;;;;;;23.30;21.90;;;;;;;;;;5101912;28;20193;-83
2023/01/22 05:25:09;;;;;;;28.10;25.90;;;;;;;;;;5102415;28;20242;-83
2023/01/22 05:27:36;;;;;;;27.05;25.08;;;;;;;;;;5102364;28;20205;-83
2023/01/22 05:30:05;;;;;;;27.67;25.73;;;;;;;;;;5102190;28;20200;-83
2023/01/22 05:32:33;;;;;;;26.20;24.50;;;;;;;;;;5101684;28;20249;-83
2023/01/22 05:35:01;;;;;;;27.20;25.30;;;;;;;;;;5101424;28;20245;-85
2023/01/22 05:37:28;;;;;;;27.67;25.77;;;;;;;;;;5102746;28;20262;-83
2023/01/22 05:39:55;;;;;;;26.00;24.35;;;;;;;;;;5102214;28;20274;-84
2023/01/22 05:42:22;;;;;;;26.95;25.05;;;;;;;;;;5100805;28;20253;-84
2023/01/22 05:44:49;;;;;;;25.75;24.17;;;;;;;;;;5102365;28;20289;-81
2023/01/22 05:47:17;;;;;;;27.92;25.92;;;;;;;;;;5102118;28;20277;-83
2023/01/22 05:49:44;;;;;;;26.95;25.13;;;;;;;;;;5101625;28;20256;-83
2023/01/22 05:52:11;;;;;;;26.70;24.90;;;;;;;;;;5101559;28;20200;-83
2023/01/22 05:54:38;;;;;;;25.90;24.20;;;;;;;;;;5101694;28;20217;-83
2023/01/22 05:57:06;;;;;;;25.63;24.05;;;;;;;;;;5101851;28;20204;-82
2023/01/22 05:59:33;;;;;;;24.48;23.08;;;;;;;;;;5101766;28;20224;-83
2023/01/22 06:02:00;;;;;;;27.73;25.92;;;;;;;;;;5100971;28;20215;-83
2023/01/22 06:04:29;;;;;;;26.27;24.63;;;;;;;;;;5102123;28;20216;-82
2023/01/22 06:06:56;;;;;;;26.73;24.95;;;;;;;;;;5102038;28;20206;-84
2023/01/22 06:09:23;;;;;;;25.30;23.65;;;;;;;;;;5101703;28;20204;-81
2023/01/22 06:11:50;;;;;;;26.92;24.92;;;;;;;;;;5101793;28;20204;-83
2023/01/22 06:14:17;;;;;;;25.48;23.75;;;;;;;;;;5101584;28;20279;-83
2023/01/22 06:16:44;;;;;;;22.90;21.48;;;;;;;;;;5101676;28;20615;-83
2023/01/22 06:19:11;;;;;;;25.67;24.08;;;;;;;;;;5101555;28;20192;-82
2023/01/22 06:21:39;;;;;;;27.10;25.30;;;;;;;;;;5101229;28;20216;-83
2023/01/22 06:24:07;;;;;;;27.17;25.52;;;;;;;;;;5101676;28;20230;-83
2023/01/22 06:26:34;;;;;;;27.40;25.50;;;;;;;;;;5101100;28;20576;-84
2023/01/22 06:29:01;;;;;;;26.33;24.63;;;;;;;;;;5101470;28;20211;-82
2023/01/22 06:31:28;;;;;;;27.85;25.95;;;;;;;;;;5101340;28;20245;-82
2023/01/22 06:33:55;;;;;;;26.45;24.75;;;;;;;;;;5101307;28;20209;-83
2023/01/22 06:36:22;;;;;;;27.08;25.38;;;;;;;;;;5100905;28;20649;-83
2023/01/22 06:38:50;;;;;;;29.55;27.58;;;;;;;;;;5101146;28;20247;-81
2023/01/22 06:41:17;;;;;;;29.48;27.50;;;;;;;;;;5100903;28;20224;-85
2023/01/22 06:43:44;;;;;;;27.02;25.33;;;;;;;;;;5101439;28;20569;-82
2023/01/22 06:46:11;;;;;;;29.60;27.60;;;;;;;;;;5100741;28;20219;-84
2023/01/22 06:48:38;;;;;;;27.58;25.77;;;;;;;;;;5100892;28;20203;-82
2023/01/22 06:51:06;;;;;;;29.30;27.30;;;;;;;;;;5101487;28;20210;-83
2023/01/22 06:53:33;;;;;;;28.10;26.25;;;;;;;;;;5101458;28;20203;-82
2023/01/22 06:56:01;;;;;;;29.20;27.00;;;;;;;;;;5104036;28;20571;-83
2023/01/22 06:58:28;;;;;;;29.83;27.63;;;;;;;;;;5105306;28;20201;-82
2023/01/22 07:00:56;;;;;;;30.10;28.05;;;;;;;;;;5104614;28;20221;-82
2023/01/22 07:03:23;;;;;;;29.75;27.65;;;;;;;;;;5104483;28;20213;-83
2023/01/22 07:05:55;;;;;;;27.63;25.80;;;;;;;;;;5104522;28;20278;-83
2023/01/22 07:08:22;;;;;;;30.23;28.20;;;;;;;;;;5105452;28;20189;-83
2023/01/22 07:10:49;;;;;;;29.63;27.63;;;;;;;;;;5104459;28;20198;-83
2023/01/22 07:13:18;;;;;;;30.10;28.10;;;;;;;;;;5104269;28;20195;-79
2023/01/22 07:15:45;;;;;;;28.15;26.20;;;;;;;;;;5104390;28;20228;-82
2023/01/22 07:18:13;;;;;;;30.15;28.15;;;;;;;;;;5104560;28;20203;-82
2023/01/22 07:20:40;;;;;;;28.30;26.40;;;;;;;;;;5105150;28;20228;-81
2023/01/22 07:23:07;;;;;;;30.15;28.08;;;;;;;;;;5103037;28;20197;-82
2023/01/22 07:25:34;;;;;;;31.08;28.60;;;;;;;;;;5104955;28;20244;-84
2023/01/22 07:28:01;;;;;;;28.45;26.45;;;;;;;;;;5101475;28;20199;-80
2023/01/22 07:30:30;;;;;;;30.73;28.65;;;;;;;;;;5099853;28;20197;-81
2023/01/22 07:32:59;;;;;;;29.52;27.48;;;;;;;;;;5099472;28;20650;-81
2023/01/22 07:35:25;;;;;;;28.58;26.63;;;;;;;;;;5098848;28;20707;-80
2023/01/22 07:37:53;;;;;;;29.52;27.52;;;;;;;;;;5098921;28;20192;-79
2023/01/22 07:40:20;;;;;;;30.35;28.15;;;;;;;;;;5099344;28;20220;-82
2023/01/22 07:42:47;;;;;;;29.48;27.27;;;;;;;;;;5099040;28;20203;-80
2023/01/22 07:45:14;;;;;;;29.25;27.23;;;;;;;;;;5099436;28;20223;-79
2023/01/22 07:47:42;;;;;;;31.98;29.73;;;;;;;;;;5099102;28;20222;-80
2023/01/22 07:50:09;;;;;;;30.67;28.40;;;;;;;;;;5098243;28;20209;-80
2023/01/22 07:52:36;;;;;;;30.05;28.05;;;;;;;;;;5098382;28;20218;-81
2023/01/22 07:55:04;;;;;;;31.13;28.92;;;;;;;;;;5098845;28;20713;-80
2023/01/22 07:57:31;;;;;;;29.48;27.45;;;;;;;;;;5098794;28;20261;-80
2023/01/22 07:59:57;;;;;;;32.55;30.08;;;;;;;;;;5098719;28;20195;-81
2023/01/22 08:02:25;;;;;;;30.63;28.50;;;;;;;;;;5098085;28;20737;-81
2023/01/22 08:04:53;;;;;;;31.95;29.65;;;;;;;;;;5099229;28;20269;-81
2023/01/22 08:07:22;;;;;;;31.23;28.92;;;;;;;;;;5097658;28;20199;-81
2023/01/22 08:09:49;;;;;;;30.50;28.20;;;;;;;;;;5099286;28;20204;-81
2023/01/22 08:12:16;;;;;;;29.15;27.05;;;;;;;;;;5098791;28;20212;-81
2023/01/22 08:14:43;;;;;;;30.30;28.20;;;;;;;;;;5099222;28;20332;-81
2023/01/22 08:17:10;;;;;;;31.25;28.83;;;;;;;;;;5099056;28;20211;-81
2023/01/22 08:19:37;;;;;;;32.20;29.58;;;;;;;;;;5098921;28;20204;-80
2023/01/22 08:22:05;;;;;;;29.98;27.77;;;;;;;;;;5097836;28;20556;-80
2023/01/22 08:24:33;;;;;;;31.63;29.23;;;;;;;;;;5098210;28;20267;-79
2023/01/22 08:27:00;;;;;;;31.95;29.60;;;;;;;;;;5098260;28;20206;-79
2023/01/22 08:29:27;;;;;;;31.75;29.35;;;;;;;;;;5098150;28;20265;-78
2023/01/22 08:31:54;;;;;;;30.30;28.30;;;;;;;;;;5097477;28;20203;-80
2023/01/22 08:34:21;;;;;;;31.27;28.77;;;;;;;;;;5097453;28;20229;-79
2023/01/22 08:36:48;;;;;;;32.72;30.10;;;;;;;;;;5097438;28;20689;-79
2023/01/22 08:39:16;;;;;;;33.17;30.63;;;;;;;;;;5096884;28;20582;-79
2023/01/22 08:41:43;;;;;;;33.33;30.88;;;;;;;;;;5096386;28;20294;-80
2023/01/22 08:44:12;;;;;;;32.75;30.40;;;;;;;;;;5097418;28;20188;-79
2023/01/22 08:46:40;;;;;;;30.85;28.58;;;;;;;;;;5097705;28;20590;-80
2023/01/22 08:49:07;;;;;;;33.88;31.27;;;;;;;;;;5098000;28;20390;-81
2023/01/22 08:51:34;;;;;;;30.17;27.98;;;;;;;;;;5097456;28;20535;-80
2023/01/22 08:54:01;;;;;;;33.70;31.15;;;;;;;;;;5098167;28;20225;-80
2023/01/22 08:56:29;;;;;;;33.33;30.50;;;;;;;;;;5098071;28;20603;-79
2023/01/22 08:58:58;;;;;;;33.72;31.13;;;;;;;;;;5098331;28;20216;-80
2023/01/22 09:01:26;;;;;;;31.90;29.60;;;;;;;;;;5097528;28;20254;-80
2023/01/22 09:03:53;;;;;;;33.13;30.63;;;;;;;;;;5097802;28;20208;-81
2023/01/22 09:06:22;;;;;;;33.08;30.48;;;;;;;;;;5097947;28;20604;-79
2023/01/22 09:08:49;;;;;;;32.42;29.65;;;;;;;;;;5098272;28;20203;-80
2023/01/22 09:11:16;;;;;;;31.42;29.17;;;;;;;;;;5097871;28;20284;-81
2023/01/22 09:13:44;;;;;;;31.20;28.95;;;;;;;;;;5097683;28;20238;-80
2023/01/22 09:16:11;;;;;;;31.50;29.20;;;;;;;;;;5097739;28;20219;-80
2023/01/22 09:18:38;;;;;;;30.42;28.38;;;;;;;;;;5097467;28;20210;-80
2023/01/22 09:21:06;;;;;;;32.67;30.23;;;;;;;;;;5097689;28;20222;-80
2023/01/22 09:23:33;;;;;;;32.40;29.83;;;;;;;;;;5097215;28;20226;-80
2023/01/22 09:26:01;;;;;;;31.58;29.23;;;;;;;;;;5097912;28;20281;-81
2023/01/22 09:28:28;;;;;;;32.42;30.25;;;;;;;;;;5097331;28;20184;-79
2023/01/22 09:30:56;;;;;;;33.40;30.63;;;;;;;;;;5097405;28;20249;-81
2023/01/22 09:33:23;;;;;;;35.17;32.53;;;;;;;;;;5096915;28;20246;-79
2023/01/22 09:35:50;;;;;;;34.17;31.60;;;;;;;;;;5097109;28;20226;-79
2023/01/22 09:38:18;;;;;;;32.38;29.98;;;;;;;;;;5097132;28;20204;-81
2023/01/22 09:40:47;;;;;;;30.70;28.60;;;;;;;;;;5096879;28;20222;-80
2023/01/22 09:43:21;;;;;;;30.30;28.17;;;;;;;;;;5097021;28;20702;-80
2023/01/22 09:45:50;;;;;;;33.70;31.02;;;;;;;;;;5097066;28;20224;-80
2023/01/22 09:48:19;;;;;;;31.45;28.75;;;;;;;;;;5096887;28;20224;-81
2023/01/22 09:50:46;;;;;;;33.45;31.05;;;;;;;;;;5097384;28;20200;-80
2023/01/22 09:53:15;;;;;;;31.02;29.00;;;;;;;;;;5096638;28;20203;-79
2023/01/22 09:55:45;;;;;;;31.98;29.58;;;;;;;;;;5096387;28;20702;-80
2023/01/22 09:58:14;;;;;;;31.50;29.33;;;;;;;;;;5097185;28;20208;-80
2023/01/22 10:00:43;;;;;;;31.25;29.15;;;;;;;;;;5096390;28;20251;-80
2023/01/22 10:03:12;;;;;;;32.85;30.55;;;;;;;;;;5096122;28;20207;-80
2023/01/22 10:05:42;;;;;;;33.92;31.50;;;;;;;;;;5096655;28;20277;-79
2023/01/22 10:08:13;;;;;;;32.53;30.33;;;;;;;;;;5096571;28;20191;-80
2023/01/22 10:10:40;;;;;;;33.58;31.08;;;;;;;;;;5095915;28;20199;-79
2023/01/22 10:13:11;;;;;;;31.58;29.27;;;;;;;;;;5095719;28;20216;-80
2023/01/22 10:15:38;;;;;;;30.38;28.27;;;;;;;;;;5095932;28;20266;-79
2023/01/22 10:18:09;;;;;;;31.92;29.48;;;;;;;;;;5095319;28;20248;-78
2023/01/22 10:20:36;;;;;;;34.05;31.40;;;;;;;;;;5095712;28;20539;-80
2023/01/22 10:23:12;;;;;;;34.85;32.22;;;;;;;;;;5095238;28;20254;-80
2023/01/22 10:25:47;;;;;;;32.60;30.10;;;;;;;;;;5096483;28;20228;-79
2023/01/22 10:28:15;;;;;;;30.48;28.38;;;;;;;;;;5096296;28;20196;-80
2023/01/22 10:30:46;;;;;;;32.67;30.38;;;;;;;;;;5095394;28;20204;-79
2023/01/22 10:33:16;;;;;;;32.90;30.50;;;;;;;;;;5095679;28;20210;-80
2023/01/22 10:35:44;;;;;;;32.47;30.08;;;;;;;;;;5096953;28;20282;-79
2023/01/22 10:38:22;;;;;;;32.38;29.98;;;;;;;;;;5096699;28;20208;-79
2023/01/22 10:40:53;;;;;;;33.97;31.30;;;;;;;;;;5096027;28;20206;-79
2023/01/22 10:43:20;;;;;;;33.03;30.52;;;;;;;;;;5095224;28;20209;-80
2023/01/22 10:45:53;;;;;;;31.67;29.17;;;;;;;;;;5095771;28;20250;-79
2023/01/22 10:48:20;;;;;;;34.13;31.48;;;;;;;;;;5096687;28;20189;-79
2023/01/22 10:50:47;;;;;;;32.72;30.33;;;;;;;;;;5096560;28;20257;-79
2023/01/22 10:53:18;;;;;;;32.03;29.63;;;;;;;;;;5095908;28;20226;-79
2023/01/22 10:55:52;;;;;;;33.28;30.60;;;;;;;;;;5096305;28;20222;-80
2023/01/22 10:58:21;;;;;;;32.60;30.20;;;;;;;;;;5096483;28;20196;-80
2023/01/22 11:00:55;;;;;;;32.00;29.80;;;;;;;;;;5096521;28;20213;-79
2023/01/22 11:03:23;;;;;;;32.55;29.73;;;;;;;;;;5095979;28;20219;-79
2023/01/22 11:05:53;;;;;;;34.00;31.48;;;;;;;;;;5096301;28;20289;-80
2023/01/22 11:08:20;;;;;;;36.28;33.20;;;;;;;;;;5096211;28;20203;-79
2023/01/22 11:10:51;;;;;;;34.05;31.48;;;;;;;;;;5095825;28;20268;-80
2023/01/22 11:13:20;;;;;;;32.95;30.65;;;;;;;;;;5096068;28;20250;-79
2023/01/22 11:15:52;;;;;;;33.88;31.13;;;;;;;;;;5096193;28;20796;-80
2023/01/22 11:18:29;;;;;;;35.30;32.58;;;;;;;;;;5096196;28;20235;-80
2023/01/22 11:20:57;;;;;;;33.53;31.15;;;;;;;;;;5096343;28;20185;-81
2023/01/22 11:23:27;;;;;;;37.63;34.90;;;;;;;;;;5095370;28;20208;-80
2023/01/22 11:26:03;;;;;;;35.45;32.40;;;;;;;;;;5096466;28;20224;-81
2023/01/22 11:28:40;;;;;;;35.10;32.28;;;;;;;;;;5096288;28;20193;-81
2023/01/22 11:31:13;;;;;;;36.30;33.42;;;;;;;;;;5096508;28;20287;-80
2023/01/22 11:33:49;;;;;;;39.47;36.47;;;;;;;;;;5095789;28;20261;-80
2023/01/22 11:36:19;;;;;;;37.05;34.25;;;;;;;;;;5095730;28;20234;-82
2023/01/22 11:38:50;;;;;;;35.88;33.03;;;;;;;;;;5096680;28;20670;-80
2023/01/22 11:41:35;;;;;;;36.13;33.72;;;;;;;;;;5097581;28;20209;-81
2023/01/22 11:44:11;;;;;;;43.03;39.33;;;;;;;;;;5099857;28;20258;-80
2023/01/22 11:46:49;;;;;;;40.88;37.58;;;;;;;;;;5100241;28;20189;-80
2023/01/22 11:49:21;;;;;;;38.83;35.97;;;;;;;;;;5100161;28;20194;-81
2023/01/22 11:51:54;;;;;;;42.28;38.85;;;;;;;;;;5098888;28;20583;-81
2023/01/22 11:54:31;;;;;;;38.33;35.42;;;;;;;;;;5100143;28;20226;-81
2023/01/22 11:57:06;;;;;;;41.17;37.88;;;;;;;;;;5100244;28;20262;-79
2023/01/22 11:59:41;;;;;;;41.25;38.03;;;;;;;;;;5100089;28;20238;-81
2023/01/22 12:02:31;;;;;;;43.58;40.08;;;;;;;;;;5099931;28;20252;-81
2023/01/22 12:05:08;;;;;;;45.40;41.75;;;;;;;;;;5100071;28;20639;-80
2023/01/22 12:07:46;;;;;;;47.78;43.88;;;;;;;;;;5100004;28;20193;-81
2023/01/22 12:10:23;;;;;;;46.72;43.33;;;;;;;;;;5099689;28;20294;-79
2023/01/22 12:12:52;;;;;;;47.13;43.42;;;;;;;;;;5099157;28;20238;-80
2023/01/22 12:15:31;;;;;;;46.58;43.15;;;;;;;;;;5099437;28;20269;-79
2023/01/22 12:18:05;;;;;;;47.03;43.60;;;;;;;;;;5099839;28;20624;-80
2023/01/22 12:20:40;;;;;;;46.38;42.47;;;;;;;;;;5099890;28;20636;-80
2023/01/22 12:23:11;;;;;;;46.35;42.85;;;;;;;;;;5098383;28;20784;-80
2023/01/22 12:25:42;;;;;;;46.92;43.00;;;;;;;;;;5099058;28;20246;-80
2023/01/22 12:28:12;;;;;;;47.05;43.55;;;;;;;;;;5099438;28;20536;-79
2023/01/22 12:30:45;;;;;;;46.03;42.30;;;;;;;;;;5099258;28;20197;-81
2023/01/22 12:33:14;;;;;;;48.03;44.25;;;;;;;;;;5098254;28;20257;-79
2023/01/22 12:35:41;;;;;;;47.97;44.17;;;;;;;;;;5098746;28;20230;-81
2023/01/22 12:38:11;;;;;;;50.13;46.22;;;;;;;;;;5098550;28;20281;-79
2023/01/22 12:40:49;;;;;;;49.33;45.55;;;;;;;;;;5098363;28;20209;-79
2023/01/22 12:43:18;;;;;;;45.88;42.53;;;;;;;;;;5098101;28;20211;-80
2023/01/22 12:45:51;;;;;;;48.72;44.60;;;;;;;;;;5098157;28;20225;-80
2023/01/22 12:48:24;;;;;;;44.67;41.15;;;;;;;;;;5098662;28;20186;-79
2023/01/22 12:50:51;;;;;;;45.10;41.30;;;;;;;;;;5098786;28;20238;-80
2023/01/22 12:53:26;;;;;;;46.13;42.35;;;;;;;;;;5097150;28;20208;-79
2023/01/22 12:56:02;;;;;;;44.78;41.47;;;;;;;;;;5097969;28;20276;-79
2023/01/22 12:58:30;;;;;;;44.30;40.80;;;;;;;;;;5098398;28;20198;-78
2023/01/22 13:01:02;;;;;;;48.83;44.90;;;;;;;;;;5097783;28;20229;-80
2023/01/22 13:03:29;;;;;;;44.67;41.20;;;;;;;;;;5097434;28;20201;-80
2023/01/22 13:05:56;;;;;;;47.03;43.47;;;;;;;;;;5098024;28;20698;-79
2023/01/22 13:08:26;;;;;;;48.60;44.97;;;;;;;;;;5098019;28;20209;-79
2023/01/22 13:10:54;;;;;;;45.83;42.08;;;;;;;;;;5098166;28;20617;-80
2023/01/22 13:13:24;;;;;;;48.17;43.88;;;;;;;;;;5097167;28;20200;-80
2023/01/22 13:15:52;;;;;;;47.92;43.80;;;;;;;;;;5098360;28;20255;-80
2023/01/22 13:18:22;;;;;;;47.63;43.22;;;;;;;;;;5097798;28;20203;-79
2023/01/22 13:20:56;;;;;;;47.17;42.40;;;;;;;;;;5098006;28;20205;-79
2023/01/22 13:23:23;;;;;;;38.85;36.17;;;;;;;;;;5097327;28;20686;-79
2023/01/22 13:25:53;;;;;;;44.05;40.50;;;;;;;;;;5097722;28;20315;-80
2023/01/22 13:28:19;;;;;;;40.53;37.47;;;;;;;;;;5096555;28;20213;-80
2023/01/22 13:30:55;;;;;;;41.50;38.30;;;;;;;;;;5097779;28;20194;-80
2023/01/22 13:33:24;;;;;;;42.42;39.20;;;;;;;;;;5097353;28;20231;-80
2023/01/22 13:35:50;;;;;;;42.20;38.75;;;;;;;;;;5097763;28;20249;-81
2023/01/22 13:38:19;;;;;;;44.65;40.08;;;;;;;;;;5097719;28;20213;-79
2023/01/22 13:40:49;;;;;;;42.38;38.60;;;;;;;;;;5097469;28;20567;-79
2023/01/22 13:43:17;;;;;;;43.90;39.97;;;;;;;;;;5096922;28;20637;-79
2023/01/22 13:45:44;;;;;;;43.30;39.05;;;;;;;;;;5097453;28;20277;-79
2023/01/22 13:48:19;;;;;;;43.03;39.38;;;;;;;;;;5097492;28;20188;-80
2023/01/22 13:50:50;;;;;;;46.25;42.45;;;;;;;;;;5097315;28;20207;-79
2023/01/22 13:53:25;;;;;;;43.05;39.15;;;;;;;;;;5097187;28;20897;-80
2023/01/22 13:55:52;;;;;;;45.33;41.30;;;;;;;;;;5097039;28;20289;-79
2023/01/22 13:58:33;;;;;;;37.88;35.03;;;;;;;;;;5096756;28;20206;-80
2023/01/22 14:01:00;;;;;;;42.70;38.60;;;;;;;;;;5097325;28;20612;-80
2023/01/22 14:03:28;;;;;;;45.45;41.25;;;;;;;;;;5096831;28;20209;-80
2023/01/22 14:06:03;;;;;;;40.63;36.47;;;;;;;;;;5097048;28;20225;-79
2023/01/22 14:08:31;;;;;;;40.97;37.60;;;;;;;;;;5096801;28;20640;-80
2023/01/22 14:10:58;;;;;;;41.88;38.30;;;;;;;;;;5096951;28;20615;-80
2023/01/22 14:13:25;;;;;;;40.97;37.20;;;;;;;;;;5097330;28;20254;-79
2023/01/22 14:16:05;;;;;;;40.50;37.15;;;;;;;;;;5097577;28;20224;-79
2023/01/22 14:18:32;;;;;;;41.65;37.50;;;;;;;;;;5097109;28;20192;-80
2023/01/22 14:20:59;;;;;;;37.92;34.60;;;;;;;;;;5096902;28;20204;-79
2023/01/22 14:23:28;;;;;;;37.75;34.75;;;;;;;;;;5096638;28;20689;-80
2023/01/22 14:25:56;;;;;;;40.20;36.28;;;;;;;;;;5096828;28;20767;-80
2023/01/22 14:28:23;;;;;;;40.55;37.25;;;;;;;;;;5096879;28;20209;-80
2023/01/22 14:30:51;;;;;;;39.67;35.85;;;;;;;;;;5097235;28;20205;-79
2023/01/22 14:33:19;;;;;;;37.67;34.78;;;;;;;;;;5096072;28;20685;-79
2023/01/22 14:35:46;;;;;;;37.83;34.60;;;;;;;;;;5097149;28;20219;-80